Time;durP1;ratioP1;P1;durP2;ratioP2;P2;SDS_P1;SDS_P2;PMS_P1;PMS_P2;Temp;Humidity;BMP_temperature;BMP_pressure;BME280_temperature;BME280_humidity;BME280_pressure;Samples;Min_cycle;Max_cycle;Signal;HPM_P1;HPM_P2
2022/09/23 00:01:16;;;;;;;48.72;27.70;;;8.40;99.90;;;;;;5092308;28;20024;-56
2022/09/23 00:03:45;;;;;;;36.47;24.60;;;8.50;99.90;;;;;;5090562;28;20028;-56
2022/09/23 00:06:22;;;;;;;45.20;27.42;;;8.50;99.90;;;;;;5091899;28;20028;-56
2022/09/23 00:08:49;;;;;;;44.00;24.77;;;8.50;99.90;;;;;;5091223;28;20031;-57
2022/09/23 00:11:18;;;;;;;43.05;26.00;;;8.50;99.90;;;;;;5089832;28;20035;-57
2022/09/23 00:13:45;;;;;;;42.67;23.17;;;8.50;99.90;;;;;;5088728;28;20028;-57
2022/09/23 00:16:12;;;;;;;;;;;8.40;99.90;;;;;;5090386;28;20026;-56
2022/09/23 00:18:38;;;;;;;31.95;19.70;;;8.40;99.90;;;;;;5091179;28;19919;-56
2022/09/23 00:21:05;;;;;;;29.77;18.58;;;8.30;99.90;;;;;;5091330;28;20024;-56
2022/09/23 00:23:31;;;;;;;;;;;8.30;99.90;;;;;;5092071;28;20024;-56
2022/09/23 00:25:59;;;;;;;33.28;19.35;;;8.20;99.90;;;;;;5091025;28;20321;-56
2022/09/23 00:28:25;;;;;;;25.25;17.02;;;8.20;99.90;;;;;;5091252;28;20016;-56
2022/09/23 00:30:50;;;;;;;30.05;18.88;;;8.30;99.90;;;;;;5091178;28;20099;-57
2022/09/23 00:33:16;;;;;;;34.50;18.17;;;8.30;99.90;;;;;;5090627;28;20032;-56
2022/09/23 00:35:42;;;;;;;30.27;19.38;;;8.30;99.90;;;;;;5090355;28;20043;-56
2022/09/23 00:38:08;;;;;;;35.22;19.95;;;8.40;99.90;;;;;;5088071;28;20402;-55
2022/09/23 00:40:35;;;;;;;42.53;24.05;;;8.40;99.90;;;;;;5090615;28;20066;-57
2022/09/23 00:43:00;;;;;;;43.30;20.65;;;8.40;99.90;;;;;;5088447;28;20107;-57
2022/09/23 00:45:28;;;;;;;35.03;21.48;;;8.40;99.90;;;;;;5090695;28;20419;-57
2022/09/23 00:48:01;;;;;;;34.15;20.83;;;8.40;99.90;;;;;;5090400;28;20107;-57
2022/09/23 00:50:35;;;;;;;34.50;21.33;;;8.30;99.90;;;;;;5087985;28;20043;-57
2022/09/23 00:53:06;;;;;;;34.67;22.80;;;8.30;99.90;;;;;;5089160;28;20057;-57
2022/09/23 00:55:38;;;;;;;37.33;20.73;;;8.30;99.90;;;;;;5088780;28;20080;-57
2022/09/23 00:58:08;;;;;;;31.27;20.00;;;8.40;99.90;;;;;;5090819;28;20077;-57
2022/09/23 01:00:34;;;;;;;36.28;20.60;;;8.40;99.90;;;;;;5090526;28;20036;-57
2022/09/23 01:03:01;;;;;;;35.42;20.42;;;8.50;99.90;;;;;;5089722;28;20038;-58
2022/09/23 01:05:26;;;;;;;33.10;19.43;;;8.50;99.90;;;;;;5090726;28;20035;-56
2022/09/23 01:07:56;;;;;;;35.58;21.33;;;8.60;99.90;;;;;;5088756;28;20024;-57
2022/09/23 01:10:22;;;;;;;40.67;19.85;;;8.60;99.90;;;;;;5089985;28;20179;-57
2022/09/23 01:12:54;;;;;;;31.13;19.30;;;8.60;99.90;;;;;;5088383;28;20475;-57
2022/09/23 01:15:51;;;;;;;34.83;21.75;;;8.60;99.90;;;;;;5089944;28;20278;-57
2022/09/23 01:18:31;;;;;;;36.75;22.35;;;8.50;99.90;;;;;;5089619;28;20032;-57
2022/09/23 01:21:18;;;;;;;69.78;31.98;;;8.50;99.90;;;;;;5090069;28;20048;-57
2022/09/23 01:23:47;;;;;;;100.05;38.20;;;8.50;99.90;;;;;;5089914;28;20028;-57
2022/09/23 01:26:43;;;;;;;54.28;30.52;;;8.50;99.90;;;;;;5089672;28;20035;-57
2022/09/23 01:29:36;;;;;;;49.08;27.75;;;8.40;99.90;;;;;;5088431;28;20028;-58
2022/09/23 01:32:25;;;;;;;47.10;27.15;;;8.40;99.90;;;;;;5073788;28;20767;-57
2022/09/23 01:35:06;;;;;;;49.95;28.30;;;8.30;99.90;;;;;;5076267;28;20027;-56
2022/09/23 01:38:09;;;;;;;89.80;40.10;;;8.30;99.90;;;;;;5086435;28;20077;-56
2022/09/23 01:40:48;;;;;;;75.05;37.30;;;8.30;99.90;;;;;;5089754;28;20032;-56
2022/09/23 01:43:37;;;;;;;58.67;31.50;;;8.30;99.90;;;;;;5088958;28;20475;-55
2022/09/23 01:46:06;;;;;;;;;;;8.20;99.90;;;;;;5092633;28;20176;-57
2022/09/23 01:48:45;;;;;;;;;;;8.20;99.90;;;;;;5098299;28;20053;-56
2022/09/23 01:51:22;;;;;;;46.63;28.27;;;8.30;99.90;;;;;;5069591;28;20033;-56
2022/09/23 01:53:59;;;;;;;55.22;29.58;;;8.30;99.90;;;;;;5066774;28;20040;-56
2022/09/23 01:56:31;;;;;;;53.25;28.33;;;8.40;99.90;;;;;;5068113;28;20066;-56
2022/09/23 01:59:21;;;;;;;48.35;25.92;;;8.40;99.90;;;;;;5067362;28;20044;-56
2022/09/23 02:02:15;;;;;;;43.50;22.92;;;8.50;99.90;;;;;;5067483;28;20021;-56
2022/09/23 02:04:59;;;;;;;40.45;23.58;;;8.50;99.90;;;;;;5081370;28;20024;-56
2022/09/23 02:07:32;;;;;;;41.38;25.13;;;8.30;99.90;;;;;;5087698;28;20035;-56
2022/09/23 02:10:28;;;;;;;44.97;26.95;;;8.40;99.90;;;;;;5087609;28;20028;-56
2022/09/23 02:12:59;;;;;;;44.63;26.67;;;8.30;99.90;;;;;;5084055;28;20035;-56
2022/09/23 02:15:32;;;;;;;42.08;24.85;;;8.30;99.90;;;;;;5088963;28;20074;-56
2022/09/23 02:18:23;;;;;;;44.28;25.90;;;8.20;99.90;;;;;;5087297;28;20383;-56
2022/09/23 02:20:54;;;;;;;356.90;225.02;;;8.30;99.90;;;;;;5088767;28;20027;-56
2022/09/23 02:23:26;;;;;;;193.55;132.05;;;8.20;99.90;;;;;;5088806;28;20020;-56
2022/09/23 02:26:18;;;;;;;176.57;112.72;;;8.20;99.90;;;;;;5088922;28;20036;-56
2022/09/23 02:28:57;;;;;;;113.18;69.47;;;8.40;99.90;;;;;;5088601;28;20024;-56
2022/09/23 02:31:47;;;;;;;71.53;45.40;;;8.40;99.90;;;;;;5088922;28;20565;-56
2022/09/23 02:34:15;;;;;;;51.85;30.65;;;8.40;99.90;;;;;;5088659;28;20023;-57
2022/09/23 02:36:51;;;;;;;49.38;28.77;;;8.40;99.90;;;;;;5089010;28;20024;-56
2022/09/23 02:39:21;;;;;;;38.13;23.80;;;8.50;99.90;;;;;;5088618;28;20032;-56
2022/09/23 02:42:03;;;;;;;35.10;22.80;;;8.40;99.90;;;;;;5088687;28;20103;-56
2022/09/23 02:44:31;;;;;;;36.17;22.42;;;8.40;99.90;;;;;;5088746;28;20055;-56
2022/09/23 02:46:57;;;;;;;35.10;22.77;;;8.40;99.90;;;;;;5070878;28;20032;-56
2022/09/23 02:49:27;;;;;;;39.55;22.63;;;8.40;99.90;;;;;;5087153;28;20548;-55
2022/09/23 02:51:53;;;;;;;39.60;23.90;;;8.50;99.90;;;;;;5087469;28;20024;-57
2022/09/23 02:54:26;;;;;;;36.33;21.27;;;8.40;99.90;;;;;;5089095;28;20024;-55
2022/09/23 02:56:52;;;;;;;35.58;22.58;;;8.50;99.90;;;;;;5088648;28;20050;-56
2022/09/23 02:59:20;;;;;;;36.97;21.55;;;8.50;99.90;;;;;;5087479;28;20036;-57
2022/09/23 03:02:19;;;;;;;39.33;22.10;;;8.40;99.90;;;;;;5088679;28;20104;-56
2022/09/23 03:04:57;;;;;;;37.15;22.10;;;8.40;99.90;;;;;;5088734;28;20016;-56
2022/09/23 03:07:39;;;;;;;37.63;23.88;;;8.40;99.90;;;;;;5088782;28;20479;-57
2022/09/23 03:10:20;;;;;;;39.20;23.08;;;8.30;99.90;;;;;;5087730;28;20024;-57
2022/09/23 03:13:00;;;;;;;41.25;23.70;;;8.30;99.90;;;;;;5088936;28;20077;-56
2022/09/23 03:15:51;;;;;;;45.42;25.70;;;8.30;99.90;;;;;;5088808;28;20028;-56
2022/09/23 03:18:24;;;;;;;39.67;24.58;;;8.20;99.90;;;;;;5088537;28;20025;-56
2022/09/23 03:21:32;;;;;;;37.83;23.90;;;8.20;99.90;;;;;;5088544;28;20039;-57
2022/09/23 03:24:01;;;;;;;41.67;25.17;;;8.20;99.90;;;;;;5088314;28;20039;-57
2022/09/23 03:26:32;;;;;;;40.38;23.65;;;8.20;99.90;;;;;;5091629;28;20043;-57
2022/09/23 03:29:02;;;;;;;38.95;23.33;;;8.20;99.90;;;;;;5092468;28;20055;-57
2022/09/23 03:31:28;;;;;;;34.03;23.95;;;8.30;99.90;;;;;;5092368;28;20064;-56
2022/09/23 03:33:58;;;;;;;47.40;27.02;;;8.30;99.90;;;;;;5092483;28;20021;-56
2022/09/23 03:39:27;;;;;;;44.10;26.38;;;8.20;99.90;;;;;;5092293;28;20391;-57
2022/09/23 03:41:55;;;;;;;46.17;25.45;;;8.30;99.90;;;;;;5090183;28;20024;-56
2022/09/23 03:44:22;;;;;;;39.63;24.80;;;8.30;99.90;;;;;;5091847;28;20087;-56
2022/09/23 03:46:51;;;;;;;37.47;24.33;;;8.30;99.90;;;;;;5092055;28;20554;-57
2022/09/23 03:49:23;;;;;;;38.78;25.13;;;8.30;99.90;;;;;;5091616;28;20058;-56
2022/09/23 03:51:48;;;;;;;40.42;25.27;;;8.30;99.90;;;;;;5092018;28;20040;-56
2022/09/23 03:54:14;;;;;;;42.20;26.48;;;8.30;99.90;;;;;;5090272;28;20102;-56
2022/09/23 03:56:40;;;;;;;40.55;23.60;;;8.40;99.90;;;;;;5090197;28;20028;-56
2022/09/23 03:59:06;;;;;;;39.78;24.50;;;8.40;99.90;;;;;;5091892;28;20051;-56
2022/09/23 04:01:32;;;;;;;37.22;23.20;;;8.40;99.90;;;;;;5091795;28;20020;-57
2022/09/23 04:03:58;;;;;;;38.03;24.52;;;8.30;99.90;;;;;;5091559;28;20780;-56
2022/09/23 04:06:24;;;;;;;41.30;24.15;;;8.40;99.90;;;;;;5091206;28;20547;-57
2022/09/23 04:08:53;;;;;;;37.53;22.17;;;8.40;99.90;;;;;;5091309;28;20031;-56
2022/09/23 04:11:18;;;;;;;38.88;23.17;;;8.40;99.90;;;;;;5091446;28;20035;-56
2022/09/23 04:13:44;;;;;;;37.17;23.15;;;8.40;99.90;;;;;;5091269;28;20032;-56
2022/09/23 04:16:10;;;;;;;44.20;23.40;;;8.40;99.90;;;;;;5091340;28;20038;-56
2022/09/23 04:18:35;;;;;;;33.35;21.65;;;8.50;99.90;;;;;;5091120;28;20036;-56
2022/09/23 04:21:01;;;;;;;42.80;23.40;;;8.50;99.90;;;;;;5091003;28;20031;-57
2022/09/23 04:23:27;;;;;;;34.80;22.42;;;8.50;99.90;;;;;;5090774;28;20441;-57
2022/09/23 04:25:53;;;;;;;40.22;23.15;;;8.50;99.90;;;;;;5090985;28;20028;-56
2022/09/23 04:28:19;;;;;;;39.17;23.42;;;8.60;99.90;;;;;;5090930;28;20024;-57
2022/09/23 04:30:46;;;;;;;32.03;21.30;;;8.60;99.90;;;;;;5091285;28;20467;-56
2022/09/23 04:33:12;;;;;;;36.83;21.80;;;8.50;99.90;;;;;;5091312;28;20020;-56
2022/09/23 04:35:39;;;;;;;37.60;23.85;;;8.50;99.90;;;;;;5091146;28;20124;-56
2022/09/23 04:38:09;;;;;;;34.58;22.88;;;8.50;99.90;;;;;;5091429;28;20028;-56
2022/09/23 04:40:35;;;;;;;37.13;22.05;;;8.50;99.90;;;;;;5091194;28;20043;-56
2022/09/23 04:43:00;;;;;;;39.75;22.30;;;8.40;99.90;;;;;;5091154;28;20024;-56
2022/09/23 04:45:26;;;;;;;49.40;25.77;;;8.50;99.90;;;;;;5091340;28;20081;-56
2022/09/23 04:47:52;;;;;;;39.17;23.50;;;8.40;99.90;;;;;;5091301;28;20020;-55
2022/09/23 04:50:18;;;;;;;38.80;24.90;;;8.50;99.90;;;;;;5090788;28;20441;-56
2022/09/23 04:52:44;;;;;;;43.83;26.08;;;8.40;99.90;;;;;;5091148;28;20070;-56
2022/09/23 04:55:09;;;;;;;48.47;28.08;;;8.20;99.90;;;;;;5091153;28;20389;-56
2022/09/23 04:57:35;;;;;;;44.83;28.00;;;8.20;99.90;;;;;;5090898;28;20429;-55
2022/09/23 05:00:01;;;;;;;47.28;27.85;;;8.20;99.90;;;;;;5090984;28;20429;-56
2022/09/23 05:02:27;;;;;;;47.33;29.48;;;8.10;99.90;;;;;;5090883;28;20028;-56
2022/09/23 05:04:53;;;;;;;56.85;33.72;;;8.20;99.90;;;;;;5090832;28;20034;-56
2022/09/23 05:07:19;;;;;;;61.30;33.22;;;8.20;99.90;;;;;;5090752;28;20101;-56
2022/09/23 05:09:45;;;;;;;52.15;32.30;;;8.10;99.90;;;;;;5090684;28;20364;-55
2022/09/23 05:12:11;;;;;;;56.30;30.40;;;8.20;99.90;;;;;;5090571;28;20031;-56
2022/09/23 05:14:39;;;;;;;52.90;30.80;;;8.20;99.90;;;;;;5090591;28;20126;-56
2022/09/23 05:17:05;;;;;;;53.13;30.25;;;8.30;99.90;;;;;;5090663;28;20024;-56
2022/09/23 05:19:31;;;;;;;64.38;32.35;;;8.30;99.90;;;;;;5090653;28;20032;-56
2022/09/23 05:21:57;;;;;;;50.28;30.77;;;8.30;99.90;;;;;;5090328;28;20420;-56
2022/09/23 05:24:25;;;;;;;51.90;29.95;;;8.40;99.90;;;;;;5090553;28;20044;-56
2022/09/23 05:26:50;;;;;;;46.38;28.30;;;8.50;99.90;;;;;;5090801;28;20107;-55
2022/09/23 05:29:16;;;;;;;41.38;27.77;;;8.50;99.90;;;;;;5090059;28;20598;-55
2022/09/23 05:31:42;;;;;;;41.83;27.63;;;8.50;99.90;;;;;;5090300;28;20049;-57
2022/09/23 05:34:07;;;;;;;40.60;24.33;;;8.60;99.90;;;;;;5088998;28;20032;-56
2022/09/23 05:36:35;;;;;;;41.53;25.00;;;8.50;99.90;;;;;;5090019;28;20024;-56
2022/09/23 05:39:01;;;;;;;38.92;26.33;;;8.40;99.90;;;;;;5088815;28;20036;-57
2022/09/23 05:41:27;;;;;;;44.00;25.05;;;8.30;99.90;;;;;;5088508;28;20693;-57
2022/09/23 05:43:54;;;;;;;45.63;27.75;;;8.40;99.90;;;;;;5090181;28;20059;-57
2022/09/23 05:46:22;;;;;;;;;;;8.40;99.90;;;;;;5090649;28;20107;-56
2022/09/23 05:48:48;;;;;;;38.90;26.15;;;8.30;99.90;;;;;;5089762;28;19922;-56
2022/09/23 05:51:17;;;;;;;44.47;29.47;;;8.30;99.90;;;;;;5090128;28;20046;-56
2022/09/23 05:53:44;;;;;;;47.28;29.98;;;8.30;99.90;;;;;;5089900;28;20258;-56
2022/09/23 05:56:14;;;;;;;43.17;29.00;;;8.40;99.90;;;;;;5089785;28;20498;-56
2022/09/23 05:58:40;;;;;;;41.95;28.60;;;8.30;99.90;;;;;;5089916;28;20181;-55
2022/09/23 06:01:16;;;;;;;48.72;29.77;;;8.30;99.90;;;;;;5089936;28;20620;-56
2022/09/23 06:03:46;;;;;;;45.78;30.38;;;8.30;99.90;;;;;;5089928;28;20016;-56
2022/09/23 06:06:13;;;;;;;48.13;30.10;;;8.40;99.90;;;;;;5089560;28;20024;-56
2022/09/23 06:08:39;;;;;;;;;;;8.30;99.90;;;;;;5088991;28;20031;-56
2022/09/23 06:11:06;;;;;;;44.55;28.02;;;8.30;99.90;;;;;;5089893;28;20332;-56
2022/09/23 06:13:34;;;;;;;43.80;30.05;;;8.30;99.90;;;;;;5089626;28;20020;-56
2022/09/23 06:16:00;;;;;;;42.92;28.25;;;8.40;99.90;;;;;;5089501;28;20036;-56
2022/09/23 06:18:26;;;;;;;46.55;28.63;;;8.40;99.90;;;;;;5089807;28;20036;-56
2022/09/23 06:20:51;;;;;;;46.55;29.00;;;8.40;99.90;;;;;;5089406;28;20027;-56
2022/09/23 06:23:17;;;;;;;40.55;27.90;;;8.40;99.90;;;;;;5089545;28;20024;-56
2022/09/23 06:25:43;;;;;;;52.70;30.92;;;8.50;99.90;;;;;;5089509;28;20028;-56
2022/09/23 06:28:13;;;;;;;44.47;27.75;;;8.50;99.90;;;;;;5089563;28;20450;-56
2022/09/23 06:30:39;;;;;;;39.20;26.60;;;8.50;99.90;;;;;;5089964;28;20070;-56
2022/09/23 06:33:04;;;;;;;43.42;29.30;;;8.50;99.90;;;;;;5089931;28;20421;-57
2022/09/23 06:35:32;;;;;;;49.95;31.08;;;8.60;99.90;;;;;;5089767;28;20411;-57
2022/09/23 06:37:57;;;;;;;43.75;30.55;;;8.70;99.90;;;;;;5089162;28;20039;-56
2022/09/23 06:40:23;;;;;;;49.92;34.17;;;8.70;99.90;;;;;;5089548;28;20039;-56
2022/09/23 06:42:57;;;;;;;48.47;29.40;;;8.70;99.90;;;;;;5089126;28;20830;-56
2022/09/23 06:45:23;;;;;;;55.60;33.33;;;8.70;99.90;;;;;;5089526;28;20035;-56
2022/09/23 06:47:55;;;;;;;50.95;30.98;;;8.80;99.90;;;;;;5089453;28;20020;-56
2022/09/23 06:50:21;;;;;;;44.75;30.70;;;8.90;99.90;;;;;;5087985;28;20097;-56
2022/09/23 06:52:53;;;;;;;55.50;33.95;;;8.90;99.90;;;;;;5089075;28;20123;-56
2022/09/23 06:55:18;;;;;;;56.65;33.58;;;9.00;99.90;;;;;;5089509;28;20031;-55
2022/09/23 06:57:44;;;;;;;51.65;32.40;;;9.00;99.90;;;;;;5089428;28;20379;-55
2022/09/23 07:00:10;;;;;;;48.83;32.15;;;8.80;99.90;;;;;;5090327;28;20036;-55
2022/09/23 07:02:40;;;;;;;55.03;34.57;;;8.90;99.90;;;;;;5093556;28;20028;-56
2022/09/23 07:05:07;;;;;;;51.30;35.05;;;9.00;99.90;;;;;;5093312;28;20548;-56
2022/09/23 07:07:35;;;;;;;53.35;34.67;;;9.00;99.90;;;;;;5091725;28;20035;-56
2022/09/23 07:10:01;;;;;;;51.60;33.97;;;9.10;99.90;;;;;;5092995;28;20028;-55
2022/09/23 07:12:27;;;;;;;51.80;32.75;;;9.10;99.90;;;;;;5093408;28;20786;-56
2022/09/23 07:14:52;;;;;;;45.33;30.73;;;9.10;99.90;;;;;;5075005;28;20524;-55
2022/09/23 07:17:18;;;;;;;39.50;26.00;;;9.20;99.90;;;;;;5093333;28;20055;-56
2022/09/23 07:19:44;;;;;;;47.25;29.85;;;9.10;99.90;;;;;;5093123;28;20680;-55
2022/09/23 07:22:10;;;;;;;46.60;29.52;;;9.30;99.90;;;;;;5092579;28;20028;-55
2022/09/23 07:24:37;;;;;;;47.55;27.77;;;9.40;99.90;;;;;;5091624;28;20032;-55
2022/09/23 07:27:04;;;;;;;46.03;30.97;;;9.50;99.90;;;;;;5093069;28;20489;-56
2022/09/23 07:29:30;;;;;;;45.80;29.38;;;9.50;99.90;;;;;;5093176;28;20035;-55
2022/09/23 07:31:56;;;;;;;44.97;29.95;;;9.50;99.90;;;;;;5092970;28;20020;-55
2022/09/23 07:34:21;;;;;;;48.80;31.75;;;9.50;99.90;;;;;;5091450;28;20482;-55
2022/09/23 07:36:47;;;;;;;46.80;31.77;;;9.50;99.90;;;;;;5092567;28;20028;-56
2022/09/23 07:39:13;;;;;;;44.55;30.80;;;9.60;99.90;;;;;;5092565;28;20044;-56
2022/09/23 07:41:40;;;;;;;44.22;30.88;;;9.80;99.90;;;;;;5092385;28;20052;-56
2022/09/23 07:44:07;;;;;;;42.90;30.08;;;10.00;99.90;;;;;;5091290;28;20035;-56
2022/09/23 07:46:34;;;;;;;42.60;29.40;;;10.10;99.90;;;;;;5092673;28;20119;-56
2022/09/23 07:49:02;;;;;;;57.13;32.30;;;10.20;99.90;;;;;;5092447;28;20083;-55
2022/09/23 07:51:29;;;;;;;;;;;10.30;99.90;;;;;;5092958;28;20040;-56
2022/09/23 07:53:55;;;;;;;42.88;28.25;;;10.50;99.90;;;;;;5092164;28;19930;-56
2022/09/23 07:56:25;;;;;;;43.85;30.55;;;10.70;99.90;;;;;;5092589;28;20035;-56
2022/09/23 07:59:00;;;;;;;46.63;32.20;;;10.80;99.90;;;;;;5092070;28;20039;-56
2022/09/23 08:01:37;;;;;;;44.38;29.67;;;10.70;99.90;;;;;;5090762;28;20472;-56
2022/09/23 08:04:06;;;;;;;42.60;30.13;;;11.00;99.90;;;;;;5090021;28;20040;-56
2022/09/23 08:06:32;;;;;;;40.67;29.77;;;11.40;99.90;;;;;;5092211;28;20077;-55
2022/09/23 08:09:00;;;;;;;41.15;28.50;;;11.50;99.90;;;;;;5091947;28;20035;-56
2022/09/23 08:11:26;;;;;;;38.08;26.88;;;11.90;99.90;;;;;;5091775;28;20077;-56
2022/09/23 08:13:53;;;;;;;37.25;25.92;;;12.20;99.90;;;;;;5090708;28;20036;-56
2022/09/23 08:16:20;;;;;;;54.30;29.80;;;12.40;99.90;;;;;;5091901;28;20020;-56
2022/09/23 08:18:46;;;;;;;48.53;29.52;;;12.70;99.90;;;;;;5090466;28;20081;-56
2022/09/23 08:21:12;;;;;;;39.47;27.65;;;12.70;99.90;;;;;;5090537;28;20028;-57
2022/09/23 08:23:37;;;;;;;40.42;26.42;;;13.40;99.90;;;;;;5091735;28;20394;-56
2022/09/23 08:26:05;;;;;;;35.28;24.40;;;13.80;99.90;;;;;;5092134;28;20035;-56
2022/09/23 08:28:32;;;;;;;36.63;23.98;;;13.60;99.90;;;;;;5092004;28;20044;-56
2022/09/23 08:30:58;;;;;;;;;;;12.80;99.90;;;;;;5090787;28;20032;-56
2022/09/23 08:33:24;;;;;;;34.83;23.55;;;12.70;99.90;;;;;;5090405;28;19908;-56
2022/09/23 08:35:51;;;;;;;37.63;25.00;;;12.80;99.90;;;;;;5091765;28;20030;-56
2022/09/23 08:38:17;;;;;;;31.70;22.30;;;12.90;99.90;;;;;;5091556;28;20020;-56
2022/09/23 08:40:47;;;;;;;30.23;21.63;;;13.60;99.90;;;;;;5091687;28;20089;-56
2022/09/23 08:43:34;;;;;;;31.75;21.35;;;13.60;99.90;;;;;;5091689;28;20016;-56
2022/09/23 08:46:04;;;;;;;28.38;19.95;;;13.90;99.90;;;;;;5091421;28;20123;-55
2022/09/23 08:48:35;;;;;;;30.92;22.70;;;13.20;99.90;;;;;;5091196;28;20437;-56
2022/09/23 08:51:05;;;;;;;31.00;21.42;;;13.00;99.90;;;;;;5091346;28;20024;-56
2022/09/23 08:53:36;;;;;;;27.92;20.42;;;13.40;99.90;;;;;;5090920;28;20020;-56
2022/09/23 08:56:13;;;;;;;32.25;21.60;;;13.80;99.90;;;;;;5091122;28;20125;-56
2022/09/23 08:59:16;;;;;;;29.33;23.23;;;13.80;99.90;;;;;;5091064;28;20036;-56
2022/09/23 09:01:46;;;;;;;47.55;26.85;;;14.10;99.90;;;;;;5089779;28;20059;-56
2022/09/23 09:04:34;;;;;;;37.22;25.98;;;14.90;99.90;;;;;;5091033;28;20031;-56
2022/09/23 09:07:05;;;;;;;41.30;28.23;;;13.90;99.90;;;;;;5089675;28;20036;-56
2022/09/23 09:10:11;;;;;;;35.90;26.08;;;14.30;99.90;;;;;;5090469;28;20059;-56
2022/09/23 09:12:53;;;;;;;42.85;30.98;;;14.10;99.90;;;;;;5079597;28;20039;-57
2022/09/23 09:15:22;;;;;;;34.53;26.25;;;14.60;99.90;;;;;;5090679;28;20013;-56
2022/09/23 09:17:58;;;;;;;39.78;27.83;;;14.60;99.90;;;;;;5090486;28;20028;-57
2022/09/23 09:20:34;;;;;;;40.03;28.58;;;15.30;99.90;;;;;;5090906;28;20380;-56
2022/09/23 09:23:18;;;;;;;36.88;28.27;;;15.70;99.90;;;;;;5088233;28;20549;-57
2022/09/23 09:25:55;;;;;;;34.15;24.98;;;15.90;99.90;;;;;;5091064;28;20089;-56
2022/09/23 09:28:34;;;;;;;36.92;25.08;;;16.10;99.90;;;;;;5090924;28;20383;-56
2022/09/23 09:31:04;;;;;;;35.17;24.08;;;15.20;99.90;;;;;;5090737;28;20491;-57
2022/09/23 09:33:45;;;;;;;30.70;24.25;;;15.40;99.90;;;;;;5090733;28;20509;-57
2022/09/23 09:36:35;;;;;;;40.70;24.00;;;15.70;99.90;;;;;;5090608;28;20388;-56
2022/09/23 09:39:01;;;;;;;26.20;20.48;;;16.40;99.90;;;;;;5090349;28;20032;-57
2022/09/23 09:41:30;;;;;;;28.03;19.93;;;16.50;99.90;;;;;;5090525;28;20051;-57
2022/09/23 09:43:58;;;;;;;25.15;19.27;;;16.90;99.90;;;;;;5089268;28;20322;-57
2022/09/23 09:46:48;;;;;;;26.77;18.30;;;16.70;99.90;;;;;;5090755;28;20039;-57
2022/09/23 09:49:23;;;;;;;21.90;16.15;;;16.70;99.90;;;;;;5090288;28;20052;-57
2022/09/23 09:52:11;;;;;;;23.02;15.38;;;16.30;99.90;;;;;;5090386;28;20024;-56
2022/09/23 09:54:38;;;;;;;;;;;16.20;99.90;;;;;;5090549;28;20078;-55
2022/09/23 09:57:11;;;;;;;21.85;14.45;;;15.70;99.90;;;;;;5090314;28;19908;-56
2022/09/23 09:59:40;;;;;;;15.57;10.60;;;15.80;99.90;;;;;;5090343;28;20036;-57
2022/09/23 10:02:32;;;;;;;16.40;11.90;;;16.20;99.90;;;;;;5090264;28;20394;-56
2022/09/23 10:05:21;;;;;;;13.55;10.13;;;16.80;99.90;;;;;;5090243;28;20020;-56
2022/09/23 10:07:47;;;;;;;12.85;8.48;;;16.90;99.90;;;;;;5090407;28;20818;-57
2022/09/23 10:10:19;;;;;;;13.45;9.48;;;16.90;99.90;;;;;;5089929;28;20036;-58
2022/09/23 10:12:47;;;;;;;17.02;8.98;;;17.90;99.90;;;;;;5090069;28;20024;-56
2022/09/23 10:15:40;;;;;;;14.05;8.80;;;17.40;99.90;;;;;;5090053;28;20024;-54
2022/09/23 10:18:21;;;;;;;16.67;11.15;;;17.60;99.90;;;;;;5090086;28;20024;-56
2022/09/23 10:20:47;;;;;;;15.43;9.25;;;17.20;99.90;;;;;;5089963;28;20112;-56
2022/09/23 10:23:20;;;;;;;15.55;8.98;;;16.60;98.40;;;;;;5089282;28;20027;-56
2022/09/23 10:26:07;;;;;;;14.73;9.02;;;16.40;99.90;;;;;;5089446;28;20027;-56
2022/09/23 10:28:45;;;;;;;16.80;8.98;;;16.50;99.90;;;;;;5089615;28;20117;-56
2022/09/23 10:31:12;;;;;;;18.10;8.60;;;16.10;99.90;;;;;;5089729;28;20874;-56
2022/09/23 10:33:41;;;;;;;26.48;8.45;;;15.70;99.90;;;;;;5089632;28;20089;-57
2022/09/23 10:36:10;;;;;;;11.82;8.00;;;15.80;99.90;;;;;;5089810;28;20107;-56
2022/09/23 10:38:35;;;;;;;13.27;8.32;;;15.70;99.90;;;;;;5089752;28;20032;-56
2022/09/23 10:47:15;;;;;;;14.68;8.60;;;15.40;99.90;;;;;;5068757;28;20035;-56
2022/09/23 10:50:02;;;;;;;15.57;9.68;;;15.20;99.90;;;;;;5089536;28;20056;-56
2022/09/23 10:52:30;;;;;;;15.55;8.93;;;15.10;99.90;;;;;;5089800;28;20144;-57
2022/09/23 10:55:23;;;;;;;11.88;8.13;;;15.10;99.90;;;;;;5089492;28;20045;-57
2022/09/23 10:58:03;;;;;;;21.63;9.30;;;15.20;99.90;;;;;;5089677;28;20032;-55
2022/09/23 11:01:00;;;;;;;18.38;8.43;;;15.90;99.90;;;;;;5089608;28;20081;-55
2022/09/23 11:03:50;;;;;;;12.68;6.72;;;16.20;99.90;;;;;;5088205;28;20035;-56
2022/09/23 11:06:25;;;;;;;12.15;6.40;;;16.70;99.90;;;;;;5089676;28;20217;-56
2022/09/23 11:08:51;;;;;;;11.50;6.75;;;17.50;99.90;;;;;;5089396;28;20028;-56
2022/09/23 11:11:58;;;;;;;3.70;1.90;;;18.40;99.90;;;;;;5089193;28;20600;-56
2022/09/23 11:14:26;;;;;;;6.15;2.20;;;19.20;92.70;;;;;;5007018;28;20038;-56
2022/09/23 11:17:06;;;;;;;7.53;3.28;;;18.80;89.10;;;;;;5006891;28;20022;-56
2022/09/23 11:19:54;;;;;;;4.78;2.70;;;19.60;89.30;;;;;;5056108;28;20123;-56
2022/09/23 11:22:42;;;;;;;5.90;3.13;;;20.00;84.00;;;;;;5089445;28;20020;-56
2022/09/23 11:25:22;;;;;;;7.25;2.70;;;20.80;83.50;;;;;;5089172;28;20039;-56
2022/09/23 11:28:09;;;;;;;6.13;3.28;;;21.50;81.70;;;;;;5089426;28;20051;-56
2022/09/23 11:30:55;;;;;;;8.73;3.13;;;21.30;80.20;;;;;;5089422;28;20081;-56
2022/09/23 11:33:53;;;;;;;7.60;3.42;;;21.70;74.90;;;;;;5089680;28;20103;-56
2022/09/23 11:36:43;;;;;;;10.90;4.57;;;19.60;77.80;;;;;;5089709;28;20035;-56
2022/09/23 11:39:24;;;;;;;8.32;4.10;;;19.20;77.30;;;;;;5089233;28;20127;-55
2022/09/23 11:41:54;;;;;;;10.40;4.20;;;19.20;80.20;;;;;;5089371;28;20031;-55
2022/09/23 11:44:30;;;;;;;12.30;4.32;;;19.70;88.70;;;;;;5089225;28;20052;-56
2022/09/23 11:47:22;;;;;;;7.32;4.03;;;20.20;87.50;;;;;;5091262;28;20107;-55
2022/09/23 11:50:25;;;;;;;8.93;3.70;;;20.30;83.30;;;;;;5083662;28;20084;-55
2022/09/23 11:53:07;;;;;;;8.32;3.45;;;19.80;80.50;;;;;;5010472;28;20034;-55
2022/09/23 11:55:43;;;;;;;10.02;4.10;;;19.60;86.70;;;;;;5085933;28;20029;-57
2022/09/23 11:58:29;;;;;;;9.25;4.60;;;19.20;84.30;;;;;;5093103;28;20161;-55
2022/09/23 12:01:05;;;;;;;10.15;4.72;;;18.80;89.00;;;;;;5092759;28;20042;-55
2022/09/23 12:03:54;;;;;;;10.02;4.65;;;18.40;90.00;;;;;;5092813;28;20024;-55
2022/09/23 12:06:25;;;;;;;7.80;4.00;;;18.20;90.20;;;;;;5081691;28;20070;-55
2022/09/23 12:08:56;;;;;;;11.40;4.80;;;17.80;89.30;;;;;;5092807;28;20020;-55
2022/09/23 12:11:48;;;;;;;6.07;3.30;;;17.60;86.60;;;;;;5092323;28;20458;-56
2022/09/23 12:14:46;;;;;;;3.15;1.80;;;17.50;85.90;;;;;;5092620;28;20082;-56
2022/09/23 12:17:41;;;;;;;1.00;0.57;;;17.70;77.50;;;;;;5091264;28;20160;-56
2022/09/23 12:20:21;;;;;;;2.47;0.60;;;18.30;76.30;;;;;;5074478;28;20028;-55
2022/09/23 12:22:58;;;;;;;6.03;1.65;;;18.90;80.60;;;;;;5092668;28;20036;-55
2022/09/23 12:25:36;;;;;;;4.97;2.28;;;19.10;76.20;;;;;;5092193;28;20039;-56
2022/09/23 12:28:13;;;;;;;5.35;2.88;;;19.20;73.60;;;;;;5092353;28;20101;-56
2022/09/23 12:30:40;;;;;;;6.75;2.28;;;18.90;74.20;;;;;;5092136;28;20039;-56
2022/09/23 12:33:21;;;;;;;5.05;2.75;;;18.50;76.90;;;;;;5092313;28;20036;-56
2022/09/23 12:35:47;;;;;;;6.47;2.78;;;18.50;79.10;;;;;;5090927;28;20533;-56
2022/09/23 12:38:21;;;;;;;7.90;2.75;;;18.90;82.80;;;;;;5090546;28;20039;-55
2022/09/23 12:40:47;;;;;;;7.07;2.92;;;19.30;82.80;;;;;;5090399;28;20460;-56
2022/09/23 12:43:37;;;;;;;5.78;3.10;;;19.10;75.90;;;;;;5091975;28;20020;-55
2022/09/23 12:46:27;;;;;;;11.82;3.65;;;18.70;76.50;;;;;;5091721;28;20040;-56
2022/09/23 12:48:56;;;;;;;6.55;2.80;;;18.80;82.20;;;;;;5091852;28;20052;-56
2022/09/23 12:51:33;;;;;;;7.72;3.30;;;18.90;83.70;;;;;;5092020;28;20472;-55
2022/09/23 12:54:13;;;;;;;9.40;3.30;;;19.20;81.90;;;;;;5091944;28;20031;-56
2022/09/23 12:56:39;;;;;;;6.43;3.45;;;19.10;81.80;;;;;;5091685;28;20119;-55
2022/09/23 12:59:13;;;;;;;8.65;4.00;;;19.40;80.60;;;;;;5090297;28;20170;-55
2022/09/23 13:01:40;;;;;;;9.23;4.35;;;19.30;83.80;;;;;;5091801;28;20023;-59
2022/09/23 13:07:29;;;;;;;4.30;2.63;;;19.60;84.00;;;;;;5092016;28;20039;-56
2022/09/23 13:10:04;;;;;;;7.13;2.47;;;19.50;84.50;;;;;;5091400;28;20028;-55
2022/09/23 13:12:34;;;;;;;6.68;3.53;;;19.70;82.00;;;;;;5091282;28;20105;-56
2022/09/23 13:15:05;;;;;;;11.95;3.67;;;19.80;85.60;;;;;;5090199;28;20027;-55
2022/09/23 13:17:36;;;;;;;10.10;3.53;;;19.80;85.10;;;;;;5091459;28;20016;-58
2022/09/23 13:20:35;;;;;;;7.25;3.33;;;19.80;82.80;;;;;;5089870;28;20126;-56